Time;durP1;ratioP1;P1;durP2;ratioP2;P2;SDS_P1;SDS_P2;PMS_P1;PMS_P2;Temp;Humidity;BMP_temperature;BMP_pressure;BME280_temperature;BME280_humidity;BME280_pressure;Samples;Min_cycle;Max_cycle;Signal;HPM_P1;HPM_P2
2023/11/08 00:01:53;;;;;;;;;;;;;;;;;;5070280;28;20410;-70
2023/11/08 00:04:20;;;;;;;;;;;;;;;;;;5060802;28;19925;-69
2023/11/08 00:06:47;;;;;;;;;;;;;;;;;;5074886;28;19978;-69
2023/11/08 00:09:14;;;;;;;;;;;;;;;;;;5068321;28;20015;-70
2023/11/08 00:11:41;;;;;;;;;;;;;;;;;;5062253;28;19928;-70
2023/11/08 00:14:08;;;;;;;;;;;;;;;;;;5072979;28;20016;-70
2023/11/08 00:16:36;;;;;;;;;;;;;;;;;;5063681;28;20023;-70
2023/11/08 00:19:03;;;;;;;;;;;;;;;;;;5055898;28;20269;-70
2023/11/08 00:21:30;;;;;;;;;;;;;;;;;;5062746;28;20003;-69
2023/11/08 00:23:57;;;;;;;;;;;;;;;;;;5075811;28;19997;-70
2023/11/08 00:26:24;;;;;;;;;;;;;;;;;;5073311;28;19938;-70
2023/11/08 00:28:51;;;;;;;;;;;;;;;;;;5072065;28;20011;-70
2023/11/08 00:31:18;;;;;;;;;;;;;;;;;;5084834;28;19979;-69
2023/11/08 00:33:46;;;;;;;;;;;;;;;;;;5055013;28;20414;-70
2023/11/08 00:36:13;;;;;;;;;;;;;;;;;;5069495;28;20431;-70
2023/11/08 00:38:41;;;;;;;;;;;;;;;;;;5072562;28;19924;-70
2023/11/08 00:41:08;;;;;;;;;;;;;;;;;;5071953;28;20023;-70
2023/11/08 00:43:35;;;;;;;;;;;;;;;;;;5073964;28;20286;-69
2023/11/08 00:46:02;;;;;;;;;;;;;;;;;;5073043;28;20009;-70
2023/11/08 00:48:29;;;;;;;;;;;;;;;;;;5066508;28;19925;-70
2023/11/08 00:50:56;;;;;;;;;;;;;;;;;;5079069;28;20008;-71
2023/11/08 00:53:23;;;;;;;;;;;;;;;;;;5074316;28;20264;-70
2023/11/08 00:55:51;;;;;;;;;;;;;;;;;;5080188;28;19924;-70
2023/11/08 00:58:18;;;;;;;;;;;;;;;;;;5066343;28;19963;-70
2023/11/08 01:00:45;;;;;;;;;;;;;;;;;;5073902;28;20025;-71
2023/11/08 01:03:12;;;;;;;;;;;;;;;;;;5074275;28;19925;-70
2023/11/08 01:05:39;;;;;;;;;;;;;;;;;;5085905;28;19924;-70
2023/11/08 01:08:07;;;;;;;;;;;;;;;;;;5070099;28;19971;-70
2023/11/08 01:10:34;;;;;;;;;;;;;;;;;;5071559;28;20007;-70
2023/11/08 01:13:01;;;;;;;;;;;;;;;;;;5072748;28;19925;-71
2023/11/08 01:15:28;;;;;;;;;;;;;;;;;;5081033;28;19924;-71
2023/11/08 01:17:56;;;;;;;;;;;;;;;;;;5077412;28;20424;-71
2023/11/08 01:20:23;;;;;;;;;;;;;;;;;;5073376;28;19994;-72
2023/11/08 01:22:50;;;;;;;;;;;;;;;;;;5073210;28;19924;-72
2023/11/08 01:25:17;;;;;;;;;;;;;;;;;;5073979;28;19951;-71
2023/11/08 01:27:44;;;;;;;;;;;;;;;;;;5071413;28;19990;-71
2023/11/08 01:30:12;;;;;;;;;;;;;;;;;;5073556;28;20329;-71
2023/11/08 01:32:39;;;;;;;;;;;;;;;;;;5060881;28;19928;-72
2023/11/08 01:35:06;;;;;;;;;;;;;;;;;;5062910;28;19924;-71
2023/11/08 01:37:33;;;;;;;;;;;;;;;;;;5071412;28;19928;-71
2023/11/08 01:40:00;;;;;;;;;;;;;;;;;;5068079;28;19964;-71
2023/11/08 01:42:27;;;;;;;;;;;;;;;;;;5069028;28;19971;-71
2023/11/08 01:44:53;;;;;;;;;;;;;;;;;;5070244;28;20012;-71
2023/11/08 01:47:20;;;;;;;;;;;;;;;;;;5066450;28;20015;-70
2023/11/08 01:49:47;;;;;;;;;;;;;;;;;;5067541;28;20007;-70
2023/11/08 01:52:14;;;;;;;;;;;;;;;;;;5068587;28;19993;-70
2023/11/08 01:54:43;;;;;;;;;;;;;;;;;;5066284;28;20015;-70
2023/11/08 01:57:10;;;;;;;;;;;;;;;;;;5057034;28;19924;-70
2023/11/08 01:59:37;;;;;;;;;;;;;;;;;;5068483;28;20034;-69
2023/11/08 02:02:04;;;;;;;;;;;;;;;;;;5071696;28;19924;-71
2023/11/08 02:04:31;;;;;;;;;;;;;;;;;;5072982;28;20406;-71
2023/11/08 02:06:58;;;;;;;;;;;;;;;;;;5073400;28;20317;-70
2023/11/08 02:09:25;;;;;;;;;;;;;;;;;;5076212;28;19943;-70
2023/11/08 02:11:52;;;;;;;;;;;;;;;;;;5053304;28;19924;-71
2023/11/08 02:14:19;;;;;;;;;;;;;;;;;;5077121;28;19978;-70
2023/11/08 02:16:46;;;;;;;;;;;;;;;;;;5094012;28;19924;-71
2023/11/08 02:19:13;;;;;;;;;;;;;;;;;;5065105;28;19925;-71
2023/11/08 02:21:40;;;;;;;;;;;;;;;;;;5056870;28;20024;-70
2023/11/08 02:24:07;;;;;;;;;;;;;;;;;;5059415;28;19966;-70
2023/11/08 02:26:34;;;;;;;;;;;;;;;;;;5070075;28;20423;-70
2023/11/08 02:29:01;;;;;;;;;;;;;;;;;;5067300;28;20422;-71
2023/11/08 02:31:30;;;;;;;;;;;;;;;;;;5053354;28;20466;-71
2023/11/08 02:33:57;;;;;;;;;;;;;;;;;;5068720;28;19977;-71
2023/11/08 02:36:24;;;;;;;;;;;;;;;;;;5070574;28;20023;-71
2023/11/08 02:38:51;;;;;;;;;;;;;;;;;;5067284;28;20346;-71
2023/11/08 02:41:18;;;;;;;;;;;;;;;;;;5055782;28;19994;-71
2023/11/08 02:43:45;;;;;;;;;;;;;;;;;;5072513;28;19971;-71
2023/11/08 02:46:12;;;;;;;;;;;;;;;;;;5072400;28;20621;-71
2023/11/08 02:48:39;;;;;;;;;;;;;;;;;;5070219;28;19985;-71
2023/11/08 02:51:07;;;;;;;;;;;;;;;;;;5065649;28;19975;-71
2023/11/08 02:53:34;;;;;;;;;;;;;;;;;;5058434;28;20402;-71
2023/11/08 02:56:01;;;;;;;;;;;;;;;;;;5082217;28;19932;-71
2023/11/08 02:58:28;;;;;;;;;;;;;;;;;;5071231;28;19960;-71
2023/11/08 03:00:56;;;;;;;;;;;;;;;;;;5052363;28;20317;-71
2023/11/08 03:03:24;;;;;;;;;;;;;;;;;;5058677;28;20383;-70
2023/11/08 03:05:51;;;;;;;;;;;;;;;;;;5070009;28;20019;-70
2023/11/08 03:08:18;;;;;;;;;;;;;;;;;;5072099;28;20355;-71
2023/11/08 03:10:45;;;;;;;;;;;;;;;;;;5059252;28;20019;-71
2023/11/08 03:13:12;;;;;;;;;;;;;;;;;;5069854;28;20407;-70
2023/11/08 03:15:39;;;;;;;;;;;;;;;;;;5069240;28;19959;-71
2023/11/08 03:18:06;;;;;;;;;;;;;;;;;;5068631;28;20093;-71
2023/11/08 03:20:33;;;;;;;;;;;;;;;;;;5071441;28;20003;-70
2023/11/08 03:23:00;;;;;;;;;;;;;;;;;;5072383;28;19928;-70
2023/11/08 03:25:27;;;;;;;;;;;;;;;;;;5071673;28;20425;-70
2023/11/08 03:27:54;;;;;;;;;;;;;;;;;;5070953;28;20399;-71
2023/11/08 03:30:22;;;;;;;;;;;;;;;;;;5057606;28;19924;-73
2023/11/08 03:32:49;;;;;;;;;;;;;;;;;;5072329;28;19975;-73
2023/11/08 03:35:18;;;;;;;;;;;;;;;;;;5060570;28;19928;-70
2023/11/08 03:37:45;;;;;;;;;;;;;;;;;;5066409;28;20031;-70
2023/11/08 03:40:12;;;;;;;;;;;;;;;;;;5067655;28;20590;-70
2023/11/08 03:42:39;;;;;;;;;;;;;;;;;;5070056;28;19924;-70
2023/11/08 03:45:06;;;;;;;;;;;;;;;;;;5069289;28;19932;-70
2023/11/08 03:47:33;;;;;;;;;;;;;;;;;;5071210;28;19932;-70
2023/11/08 03:50:00;;;;;;;;;;;;;;;;;;5066982;28;20022;-70
2023/11/08 03:52:27;;;;;;;;;;;;;;;;;;5071054;28;20034;-70
2023/11/08 03:54:55;;;;;;;;;;;;;;;;;;5067724;28;20435;-70
2023/11/08 03:57:21;;;;;;;;;;;;;;;;;;5070277;28;19932;-70
2023/11/08 03:59:49;;;;;;;;;;;;;;;;;;5069161;28;20023;-71
2023/11/08 04:02:17;;;;;;;;;;;;;;;;;;5070142;28;19924;-72
2023/11/08 04:04:45;;;;;;;;;;;;;;;;;;5072751;28;19924;-71
2023/11/08 04:07:12;;;;;;;;;;;;;;;;;;5084741;28;19924;-71
2023/11/08 04:09:40;;;;;;;;;;;;;;;;;;5059108;28;19925;-72
2023/11/08 04:12:07;;;;;;;;;;;;;;;;;;5058087;28;19937;-71
2023/11/08 04:14:34;;;;;;;;;;;;;;;;;;5070891;28;19990;-71
2023/11/08 04:17:01;;;;;;;;;;;;;;;;;;5067488;28;20019;-69
2023/11/08 04:19:28;;;;;;;;;;;;;;;;;;5065454;28;19991;-71
2023/11/08 04:21:55;;;;;;;;;;;;;;;;;;5056542;28;19954;-70
2023/11/08 04:24:22;;;;;;;;;;;;;;;;;;5069351;28;20023;-70
2023/11/08 04:26:49;;;;;;;;;;;;;;;;;;5070196;28;19971;-70
2023/11/08 04:29:16;;;;;;;;;;;;;;;;;;5068736;28;20295;-69
2023/11/08 04:31:44;;;;;;;;;;;;;;;;;;5054429;28;19978;-69
2023/11/08 04:34:12;;;;;;;;;;;;;;;;;;5067053;28;20021;-70
2023/11/08 04:36:39;;;;;;;;;;;;;;;;;;5069358;28;20046;-71
2023/11/08 04:39:07;;;;;;;;;;;;;;;;;;5070308;28;19951;-71
2023/11/08 04:41:38;;;;;;;;;;;;;;;;;;5065092;28;20379;-72
2023/11/08 04:44:05;;;;;;;;;;;;;;;;;;5072124;28;19986;-72
2023/11/08 04:46:32;;;;;;;;;;;;;;;;;;5073681;28;20379;-72
2023/11/08 04:48:59;;;;;;;;;;;;;;;;;;5074446;28;20352;-71
2023/11/08 04:51:26;;;;;;;;;;;;;;;;;;5068050;28;20287;-71
2023/11/08 04:53:53;;;;;;;;;;;;;;;;;;5080483;28;19932;-72
2023/11/08 04:56:20;;;;;;;;;;;;;;;;;;5079466;28;19924;-71
2023/11/08 04:58:47;;;;;;;;;;;;;;;;;;5065641;28;19925;-72
2023/11/08 05:01:15;;;;;;;;;;;;;;;;;;5066148;28;20290;-72
2023/11/08 05:03:42;;;;;;;;;;;;;;;;;;5055712;28;20371;-72
2023/11/08 05:06:09;;;;;;;;;;;;;;;;;;5071150;28;19978;-71
2023/11/08 05:08:36;;;;;;;;;;;;;;;;;;5072957;28;19931;-72
2023/11/08 05:11:03;;;;;;;;;;;;;;;;;;5074263;28;20342;-71
2023/11/08 05:13:31;;;;;;;;;;;;;;;;;;5070974;28;19932;-71
2023/11/08 05:15:58;;;;;;;;;;;;;;;;;;5072023;28;19924;-72
2023/11/08 05:18:25;;;;;;;;;;;;;;;;;;5073045;28;20411;-71
2023/11/08 05:20:53;;;;;;;;;;;;;;;;;;5072561;28;20600;-71
2023/11/08 05:23:21;;;;;;;;;;;;;;;;;;5070734;28;19956;-71
2023/11/08 05:25:48;;;;;;;;;;;;;;;;;;5074330;28;20015;-72
2023/11/08 05:28:15;;;;;;;;;;;;;;;;;;5065044;28;19947;-71
2023/11/08 05:30:42;;;;;;;;;;;;;;;;;;5081934;28;19928;-73
2023/11/08 05:33:10;;;;;;;;;;;;;;;;;;5080257;28;20398;-73
2023/11/08 05:35:38;;;;;;;;;;;;;;;;;;5073275;28;20003;-73
2023/11/08 05:38:05;;;;;;;;;;;;;;;;;;5071471;28;19924;-72
2023/11/08 05:40:33;;;;;;;;;;;;;;;;;;5066318;28;20035;-72
2023/11/08 05:43:00;;;;;;;;;;;;;;;;;;5070603;28;19932;-73
2023/11/08 05:45:27;;;;;;;;;;;;;;;;;;5082877;28;20443;-73
2023/11/08 05:47:54;;;;;;;;;;;;;;;;;;5090874;28;19924;-73
2023/11/08 05:50:21;;;;;;;;;;;;;;;;;;5071497;28;20019;-72
2023/11/08 05:52:48;;;;;;;;;;;;;;;;;;5066677;28;19924;-72
2023/11/08 05:55:16;;;;;;;;;;;;;;;;;;5072846;28;19928;-73
2023/11/08 05:57:44;;;;;;;;;;;;;;;;;;5059607;28;20376;-73
2023/11/08 06:00:12;;;;;;;;;;;;;;;;;;5073544;28;19924;-72
2023/11/08 06:02:39;;;;;;;;;;;;;;;;;;5071465;28;19932;-74
2023/11/08 06:05:06;;;;;;;;;;;;;;;;;;5060190;28;19924;-73
2023/11/08 06:07:33;;;;;;;;;;;;;;;;;;5074001;28;19951;-73
2023/11/08 06:10:00;;;;;;;;;;;;;;;;;;5072979;28;19970;-73
2023/11/08 06:12:27;;;;;;;;;;;;;;;;;;5073145;28;19978;-73
2023/11/08 06:14:54;;;;;;;;;;;;;;;;;;5066744;28;19924;-74
2023/11/08 06:17:21;;;;;;;;;;;;;;;;;;5056020;28;19925;-75
2023/11/08 06:19:49;;;;;;;;;;;;;;;;;;5070144;28;20019;-73
2023/11/08 06:22:16;;;;;;;;;;;;;;;;;;5072138;28;20299;-73
2023/11/08 06:24:44;;;;;;;;;;;;;;;;;;5071763;28;19964;-73
2023/11/08 06:27:11;;;;;;;;;;;;;;;;;;5066849;28;19925;-72
2023/11/08 06:29:39;;;;;;;;;;;;;;;;;;5069257;28;20015;-72
2023/11/08 06:32:06;;;;;;;;;;;;;;;;;;5056124;28;20043;-73
2023/11/08 06:34:33;;;;;;;;;;;;;;;;;;5062085;28;19938;-74
2023/11/08 06:37:00;;;;;;;;;;;;;;;;;;5072203;28;20016;-72
2023/11/08 06:39:28;;;;;;;;;;;;;;;;;;5071765;28;20866;-72
2023/11/08 06:41:56;;;;;;;;;;;;;;;;;;5061997;28;20371;-72
2023/11/08 06:44:23;;;;;;;;;;;;;;;;;;5065869;28;19982;-73
2023/11/08 06:46:51;;;;;;;;;;;;;;;;;;5069202;28;20014;-72
2023/11/08 06:49:18;;;;;;;;;;;;;;;;;;5070109;28;19986;-74
2023/11/08 06:51:45;;;;;;;;;;;;;;;;;;5066158;28;20015;-73
2023/11/08 06:54:13;;;;;;;;;;;;;;;;;;5072300;28;19933;-72
2023/11/08 06:56:41;;;;;;;;;;;;;;;;;;5069556;28;19925;-73
2023/11/08 06:59:09;;;;;;;;;;;;;;;;;;5071327;28;19928;-72
2023/11/08 07:01:37;;;;;;;;;;;;;;;;;;5064873;28;19925;-73
2023/11/08 07:04:04;;;;;;;;;;;;;;;;;;5066190;28;19966;-74
2023/11/08 07:06:32;;;;;;;;;;;;;;;;;;5063804;28;19925;-73
2023/11/08 07:08:59;;;;;;;;;;;;;;;;;;5069162;28;20386;-72
2023/11/08 07:11:27;;;;;;;;;;;;;;;;;;5059735;28;20011;-72
2023/11/08 07:13:55;;;;;;;;;;;;;;;;;;5072096;28;19954;-72
2023/11/08 07:16:21;;;;;;;;;;;;;;;;;;5067877;28;19967;-73
2023/11/08 07:18:48;;;;;;;;;;;;;;;;;;5061505;28;20023;-73
2023/11/08 07:21:15;;;;;;;;;;;;;;;;;;5062782;28;19929;-72
2023/11/08 07:23:42;;;;;;;;;;;;;;;;;;5072221;28;19967;-73
2023/11/08 07:26:09;;;;;;;;;;;;;;;;;;5067223;28;20470;-74
2023/11/08 07:28:36;;;;;;;;;;;;;;;;;;5059509;28;20019;-71
2023/11/08 07:31:03;;;;;;;;;;;;;;;;;;5066599;28;19933;-71
2023/11/08 07:33:30;;;;;;;;;;;;;;;;;;5074046;28;19981;-72
2023/11/08 07:35:57;;;;;;;;;;;;;;;;;;5067224;28;20338;-73
2023/11/08 07:38:24;;;;;;;;;;;;;;;;;;5064180;28;20343;-72
2023/11/08 07:40:53;;;;;;;;;;;;;;;;;;5052371;28;19929;-72
2023/11/08 07:43:20;;;;;;;;;;;;;;;;;;5071135;28;19986;-72
2023/11/08 07:45:48;;;;;;;;;;;;;;;;;;5059648;28;19931;-73
2023/11/08 07:48:15;;;;;;;;;;;;;;;;;;5061529;28;19933;-72
2023/11/08 07:50:42;;;;;;;;;;;;;;;;;;5066813;28;19938;-73
2023/11/08 07:53:09;;;;;;;;;;;;;;;;;;5059107;28;20003;-76
2023/11/08 07:55:36;;;;;;;;;;;;;;;;;;5064216;28;19929;-77
2023/11/08 07:58:04;;;;;;;;;;;;;;;;;;5065203;28;21358;-72
2023/11/08 08:00:31;;;;;;;;;;;;;;;;;;5063108;28;19928;-72
2023/11/08 08:02:58;;;;;;;;;;;;;;;;;;5067968;28;19974;-72
2023/11/08 08:05:25;;;;;;;;;;;;;;;;;;5062051;28;19935;-73
2023/11/08 08:07:53;;;;;;;;;;;;;;;;;;5070616;28;19924;-72
2023/11/08 08:10:22;;;;;;;;;;;;;;;;;;5066327;28;20306;-74
2023/11/08 08:12:49;;;;;;;;;;;;;;;;;;5063322;28;20339;-74
2023/11/08 08:15:17;;;;;;;;;;;;;;;;;;5064116;28;19924;-72
2023/11/08 08:17:45;;;;;;;;;;;;;;;;;;5065811;28;19924;-72
2023/11/08 08:20:12;;;;;;;;;;;;;;;;;;5071719;28;19928;-73
2023/11/08 08:22:39;;;;;;;;;;;;;;;;;;5068165;28;20006;-73
2023/11/08 08:25:06;;;;;;;;;;;;;;;;;;5065893;28;19924;-72
2023/11/08 08:27:34;;;;;;;;;;;;;;;;;;5070710;28;19929;-73
2023/11/08 08:30:01;;;;;;;;;;;;;;;;;;5073678;28;20007;-73
2023/11/08 08:32:28;;;;;;;;;;;;;;;;;;5072451;28;20011;-73
2023/11/08 08:34:55;;;;;;;;;;;;;;;;;;5072152;28;20383;-74
2023/11/08 08:37:22;;;;;;;;;;;;;;;;;;5064313;28;19925;-73
2023/11/08 08:39:49;;;;;;;;;;;;;;;;;;5066926;28;19925;-73
2023/11/08 08:42:16;;;;;;;;;;;;;;;;;;5067103;28;19956;-73
2023/11/08 08:44:43;;;;;;;;;;;;;;;;;;5070504;28;19928;-74
2023/11/08 08:47:10;;;;;;;;;;;;;;;;;;5063006;28;20023;-74
2023/11/08 08:49:38;;;;;;;;;;;;;;;;;;5072663;28;20031;-72
2023/11/08 08:52:04;;;;;;;;;;;;;;;;;;5070260;28;19925;-73
2023/11/08 08:54:32;;;;;;;;;;;;;;;;;;5064097;28;20003;-73
2023/11/08 08:57:00;;;;;;;;;;;;;;;;;;5061393;28;20037;-73
2023/11/08 08:59:28;;;;;;;;;;;;;;;;;;5069443;28;19924;-72
2023/11/08 09:01:55;;;;;;;;;;;;;;;;;;5070421;28;19931;-74
2023/11/08 09:04:23;;;;;;;;;;;;;;;;;;5071588;28;20020;-73
2023/11/08 09:06:50;;;;;;;;;;;;;;;;;;5068079;28;19928;-73
2023/11/08 09:09:18;;;;;;;;;;;;;;;;;;5066919;28;20356;-73
2023/11/08 09:11:45;;;;;;;;;;;;;;;;;;5068752;28;19942;-74
2023/11/08 09:14:12;;;;;;;;;;;;;;;;;;5069951;28;19924;-73
2023/11/08 09:16:40;;;;;;;;;;;;;;;;;;5063771;28;19967;-75
2023/11/08 09:19:07;;;;;;;;;;;;;;;;;;5065765;28;19930;-74
2023/11/08 09:21:34;;;;;;;;;;;;;;;;;;5066263;28;19931;-74
2023/11/08 09:24:02;;;;;;;;;;;;;;;;;;5070040;28;19963;-74
2023/11/08 09:26:29;;;;;;;;;;;;;;;;;;5066701;28;19924;-74
2023/11/08 09:28:58;;;;;;;;;;;;;;;;;;5071899;28;20019;-73
2023/11/08 09:31:26;;;;;;;;;;;;;;;;;;5068474;28;19987;-73
2023/11/08 09:33:53;;;;;;;;;;;;;;;;;;5072894;28;19942;-73
2023/11/08 09:36:21;;;;;;;;;;;;;;;;;;5073897;28;19925;-73
2023/11/08 09:38:50;;;;;;;;;;;;;;;;;;5072321;28;19924;-73
2023/11/08 09:41:17;;;;;;;;;;;;;;;;;;5065557;28;20018;-73
2023/11/08 09:43:44;;;;;;;;;;;;;;;;;;5066498;28;19925;-72
2023/11/08 09:46:11;;;;;;;;;;;;;;;;;;5070521;28;20028;-73
2023/11/08 09:48:39;;;;;;;;;;;;;;;;;;5065984;28;19925;-72
2023/11/08 09:51:06;;;;;;;;;;;;;;;;;;5066968;28;19924;-73
2023/11/08 09:53:34;;;;;;;;;;;;;;;;;;5067308;28;20306;-72
2023/11/08 09:56:02;;;;;;;;;;;;;;;;;;5067247;28;19924;-72
2023/11/08 09:58:29;;;;;;;;;;;;;;;;;;5066505;28;20288;-72
2023/11/08 10:00:56;;;;;;;;;;;;;;;;;;5071332;28;19928;-72
2023/11/08 10:03:22;;;;;;;;;;;;;;;;;;5064446;28;19975;-73
2023/11/08 10:05:49;;;;;;;;;;;;;;;;;;5059064;28;19925;-73
2023/11/08 10:08:18;;;;;;;;;;;;;;;;;;5060232;28;19944;-72
2023/11/08 10:10:48;;;;;;;;;;;;;;;;;;5064721;28;20384;-73
2023/11/08 10:13:15;;;;;;;;;;;;;;;;;;5067841;28;19931;-73
2023/11/08 10:15:42;;;;;;;;;;;;;;;;;;5067396;28;20019;-73
2023/11/08 10:18:10;;;;;;;;;;;;;;;;;;5068812;28;20396;-72
2023/11/08 10:20:37;;;;;;;;;;;;;;;;;;5070990;28;20359;-73
2023/11/08 10:23:05;;;;;;;;;;;;;;;;;;5066676;28;20308;-73
2023/11/08 10:25:32;;;;;;;;;;;;;;;;;;5066769;28;19932;-73
2023/11/08 10:27:59;;;;;;;;;;;;;;;;;;5063194;28;20007;-75
2023/11/08 10:30:26;;;;;;;;;;;;;;;;;;5065023;28;20021;-74
2023/11/08 10:32:53;;;;;;;;;;;;;;;;;;5068525;28;20011;-74
2023/11/08 10:35:21;;;;;;;;;;;;;;;;;;5056963;28;19964;-73
2023/11/08 10:37:48;;;;;;;;;;;;;;;;;;5060326;28;20359;-73
2023/11/08 10:40:15;;;;;;;;;;;;;;;;;;5063061;28;19932;-71
2023/11/08 10:42:42;;;;;;;;;;;;;;;;;;5064718;28;20012;-72
2023/11/08 10:45:09;;;;;;;;;;;;;;;;;;5061367;28;20384;-71
2023/11/08 10:47:36;;;;;;;;;;;;;;;;;;5063708;28;20385;-72
2023/11/08 10:50:05;;;;;;;;;;;;;;;;;;5065333;28;19928;-72
2023/11/08 10:52:32;;;;;;;;;;;;;;;;;;5070020;28;20011;-73
2023/11/08 10:55:00;;;;;;;;;;;;;;;;;;5063693;28;19963;-70
2023/11/08 10:57:28;;;;;;;;;;;;;;;;;;5063766;28;20310;-70
2023/11/08 10:59:55;;;;;;;;;;;;;;;;;;5065385;28;19931;-71
2023/11/08 11:02:22;;;;;;;;;;;;;;;;;;5067435;28;20014;-72
2023/11/08 11:04:49;;;;;;;;;;;;;;;;;;5068587;28;19925;-69
2023/11/08 11:07:16;;;;;;;;;;;;;;;;;;5059138;28;20498;-71
2023/11/08 11:09:43;;;;;;;;;;;;;;;;;;5057173;28;20298;-69
2023/11/08 11:12:10;;;;;;;;;;;;;;;;;;5064236;28;19956;-69
2023/11/08 11:14:38;;;;;;;;;;;;;;;;;;5060701;28;20034;-72
2023/11/08 11:17:05;;;;;;;;;;;;;;;;;;5064158;28;20059;-73
2023/11/08 11:19:32;;;;;;;;;;;;;;;;;;5058460;28;19925;-73
2023/11/08 11:21:59;;;;;;;;;;;;;;;;;;5063606;28;19925;-73
2023/11/08 11:24:26;;;;;;;;;;;;;;;;;;5066518;28;20036;-73
2023/11/08 11:26:53;;;;;;;;;;;;;;;;;;5067222;28;19924;-73
2023/11/08 11:29:20;;;;;;;;;;;;;;;;;;5064908;28;20015;-72
2023/11/08 11:31:49;;;;;;;;;;;;;;;;;;5063015;28;20068;-72
2023/11/08 11:34:16;;;;;;;;;;;;;;;;;;5064901;28;19969;-73
2023/11/08 11:36:43;;;;;;;;;;;;;;;;;;5068034;28;19964;-73
2023/11/08 11:39:10;;;;;;;;;;;;;;;;;;5067583;28;19986;-72
2023/11/08 11:41:37;;;;;;;;;;;;;;;;;;5066039;28;19994;-74
2023/11/08 11:44:04;;;;;;;;;;;;;;;;;;5064164;28;20027;-70
2023/11/08 11:46:31;;;;;;;;;;;;;;;;;;5065744;28;20026;-78
2023/11/08 11:48:58;;;;;;;;;;;;;;;;;;4998246;28;1802077;-72
2023/11/08 11:51:26;;;;;;;;;;;;;;;;;;5072610;28;20006;-76
2023/11/08 11:53:53;;;;;;;;;;;;;;;;;;5070392;28;19929;-74
2023/11/08 11:56:20;;;;;;;;;;;;;;;;;;5067697;28;19935;-73
2023/11/08 11:58:48;;;;;;;;;;;;;;;;;;5070706;28;19925;-73
2023/11/08 12:01:19;;;;;;;;;;;;;;;;;;5072093;28;19974;-74
2023/11/08 12:03:46;;;;;;;;;;;;;;;;;;5073362;28;20359;-74
2023/11/08 12:06:13;;;;;;;;;;;;;;;;;;5072717;28;19925;-74
2023/11/08 12:08:40;;;;;;;;;;;;;;;;;;5069714;28;19924;-75
2023/11/08 12:11:07;;;;;;;;;;;;;;;;;;5068958;28;20015;-73
2023/11/08 12:13:34;;;;;;;;;;;;;;;;;;5067319;28;20114;-72
2023/11/08 12:16:01;;;;;;;;;;;;;;;;;;5068095;28;19936;-73
2023/11/08 12:18:28;;;;;;;;;;;;;;;;;;5073132;28;20403;-73
2023/11/08 12:20:55;;;;;;;;;;;;;;;;;;5071888;28;20060;-70
2023/11/08 12:23:23;;;;;;;;;;;;;;;;;;5065160;28;20003;-73
2023/11/08 12:25:50;;;;;;;;;;;;;;;;;;5065044;28;19957;-73
2023/11/08 12:28:17;;;;;;;;;;;;;;;;;;5073946;28;19963;-74
2023/11/08 12:30:45;;;;;;;;;;;;;;;;;;5074153;28;19925;-74
2023/11/08 12:33:13;;;;;;;;;;;;;;;;;;5073792;28;20057;-73
2023/11/08 12:35:40;;;;;;;;;;;;;;;;;;5069179;28;19924;-73
2023/11/08 12:38:07;;;;;;;;;;;;;;;;;;5075047;28;20024;-73
2023/11/08 12:40:35;;;;;;;;;;;;;;;;;;5074580;28;19955;-74
2023/11/08 12:43:03;;;;;;;;;;;;;;;;;;5071924;28;19940;-74
2023/11/08 12:45:30;;;;;;;;;;;;;;;;;;5070409;28;19925;-73
2023/11/08 12:47:57;;;;;;;;;;;;;;;;;;5062632;28;19990;-73
2023/11/08 12:50:24;;;;;;;;;;;;;;;;;;5072602;28;19924;-73
2023/11/08 12:52:51;;;;;;;;;;;;;;;;;;5072748;28;19932;-73
2023/11/08 12:55:19;;;;;;;;;;;;;;;;;;5073855;28;20303;-73
2023/11/08 12:57:46;;;;;;;;;;;;;;;;;;5057023;28;19925;-73
2023/11/08 13:00:14;;;;;;;;;;;;;;;;;;5073234;28;19931;-73
2023/11/08 13:02:41;;;;;;;;;;;;;;;;;;5056593;28;19924;-73
2023/11/08 13:05:10;;;;;;;;;;;;;;;;;;5069734;28;20307;-73
2023/11/08 13:07:38;;;;;;;;;;;;;;;;;;5066654;28;19929;-72
2023/11/08 13:10:06;;;;;;;;;;;;;;;;;;5067921;28;19924;-72
2023/11/08 13:12:33;;;;;;;;;;;;;;;;;;5061855;28;19924;-73
2023/11/08 13:15:01;;;;;;;;;;;;;;;;;;5071733;28;19925;-73
2023/11/08 13:17:28;;;;;;;;;;;;;;;;;;5070162;28;19947;-73
2023/11/08 13:19:55;;;;;;;;;;;;;;;;;;5073128;28;19932;-73
2023/11/08 13:22:23;;;;;;;;;;;;;;;;;;5066338;28;19978;-73
2023/11/08 13:24:50;;;;;;;;;;;;;;;;;;5072280;28;20004;-74
2023/11/08 13:27:17;;;;;;;;;;;;;;;;;;5069408;28;19928;-73
2023/11/08 13:29:47;;;;;;;;;;;;;;;;;;5072742;28;19963;-72
2023/11/08 13:32:14;;;;;;;;;;;;;;;;;;5069062;28;19924;-72
2023/11/08 13:34:41;;;;;;;;;;;;;;;;;;5066881;28;19940;-73
2023/11/08 13:37:08;;;;;;;;;;;;;;;;;;5064858;28;19975;-74
2023/11/08 13:39:35;;;;;;;;;;;;;;;;;;5068146;28;19967;-74
2023/11/08 13:42:04;;;;;;;;;;;;;;;;;;5069658;28;20383;-73
2023/11/08 13:44:31;;;;;;;;;;;;;;;;;;5061242;28;19932;-73
2023/11/08 13:46:59;;;;;;;;;;;;;;;;;;5067987;28;20804;-74
2023/11/08 13:49:26;;;;;;;;;;;;;;;;;;5070992;28;20015;-74
2023/11/08 13:51:55;;;;;;;;;;;;;;;;;;5065183;28;19972;-73
2023/11/08 13:54:23;;;;;;;;;;;;;;;;;;5067199;28;19946;-74
2023/11/08 13:56:50;;;;;;;;;;;;;;;;;;5058746;28;19935;-74
2023/11/08 13:59:21;;;;;;;;;;;;;;;;;;5065502;28;19971;-73
2023/11/08 14:01:48;;;;;;;;;;;;;;;;;;5067401;28;19928;-74
2023/11/08 14:04:15;;;;;;;;;;;;;;;;;;5062016;28;19925;-74
2023/11/08 14:06:45;;;;;;;;;;;;;;;;;;5064448;28;20019;-74
2023/11/08 14:09:12;;;;;;;;;;;;;;;;;;5064212;28;20302;-74
2023/11/08 14:11:39;;;;;;;;;;;;;;;;;;5067232;28;20020;-74
2023/11/08 14:14:08;;;;;;;;;;;;;;;;;;5067952;28;19990;-73
2023/11/08 14:16:37;;;;;;;;;;;;;;;;;;5067140;28;19998;-74
2023/11/08 14:19:05;;;;;;;;;;;;;;;;;;5065628;28;19938;-74
2023/11/08 14:21:32;;;;;;;;;;;;;;;;;;5058914;28;20023;-76
2023/11/08 14:24:02;;;;;;;;;;;;;;;;;;5063276;28;19936;-75
2023/11/08 14:26:35;;;;;;;;;;;;;;;;;;5062389;28;20055;-75
2023/11/08 14:29:02;;;;;;;;;;;;;;;;;;5064038;28;19939;-75
2023/11/08 14:31:30;;;;;;;;;;;;;;;;;;5066945;28;20047;-75
2023/11/08 14:33:58;;;;;;;;;;;;;;;;;;5059498;28;19971;-77
2023/11/08 14:36:25;;;;;;;;;;;;;;;;;;5070898;28;19924;-77
2023/11/08 14:38:53;;;;;;;;;;;;;;;;;;5071670;28;19935;-76
2023/11/08 14:41:20;;;;;;;;;;;;;;;;;;5060665;28;19950;-74
2023/11/08 14:43:47;;;;;;;;;;;;;;;;;;5060176;28;20004;-73
2023/11/08 14:46:15;;;;;;;;;;;;;;;;;;5064430;28;20007;-74
2023/11/08 14:48:42;;;;;;;;;;;;;;;;;;5067169;28;20001;-73
2023/11/08 14:51:09;;;;;;;;;;;;;;;;;;5058022;28;19961;-74
2023/11/08 14:53:36;;;;;;;;;;;;;;;;;;5066013;28;20403;-74
2023/11/08 14:56:03;;;;;;;;;;;;;;;;;;5056754;28;19928;-74
2023/11/08 14:58:32;;;;;;;;;;;;;;;;;;5057206;28;19928;-73
2023/11/08 15:01:00;;;;;;;;;;;;;;;;;;5055941;28;20332;-74
2023/11/08 15:03:28;;;;;;;;;;;;;;;;;;5062529;28;19994;-76
2023/11/08 15:05:55;;;;;;;;;;;;;;;;;;5070127;28;20023;-77
2023/11/08 15:08:22;;;;;;;;;;;;;;;;;;5058664;28;20022;-76
2023/11/08 15:10:51;;;;;;;;;;;;;;;;;;5068623;28;19933;-76
2023/11/08 15:13:18;;;;;;;;;;;;;;;;;;5063980;28;20311;-75
2023/11/08 15:15:45;;;;;;;;;;;;;;;;;;5059326;28;19952;-74
2023/11/08 15:18:13;;;;;;;;;;;;;;;;;;5071240;28;19932;-75
2023/11/08 15:20:40;;;;;;;;;;;;;;;;;;5064135;28;19924;-76
2023/11/08 15:23:08;;;;;;;;;;;;;;;;;;5062148;28;19961;-74
2023/11/08 15:25:39;;;;;;;;;;;;;;;;;;5056988;28;20353;-75
2023/11/08 15:28:06;;;;;;;;;;;;;;;;;;5068700;28;19925;-75
2023/11/08 15:30:33;;;;;;;;;;;;;;;;;;5064138;28;20363;-74
2023/11/08 15:33:00;;;;;;;;;;;;;;;;;;5066488;28;19982;-75
2023/11/08 15:35:28;;;;;;;;;;;;;;;;;;5061064;28;20403;-76
2023/11/08 15:37:55;;;;;;;;;;;;;;;;;;5069505;28;19925;-76
2023/11/08 15:40:22;;;;;;;;;;;;;;;;;;5063440;28;20470;-77
2023/11/08 15:42:50;;;;;;;;;;;;;;;;;;5069529;28;19964;-77
2023/11/08 15:45:17;;;;;;;;;;;;;;;;;;5067133;28;19924;-76
2023/11/08 15:47:44;;;;;;;;;;;;;;;;;;5066731;28;20307;-69
2023/11/08 15:50:12;;;;;;;;;;;;;;;;;;5064814;28;19940;-71
2023/11/08 15:52:39;;;;;;;;;;;;;;;;;;5066657;28;19932;-76
2023/11/08 15:55:06;;;;;;;;;;;;;;;;;;5067079;28;19931;-74
2023/11/08 15:57:34;;;;;;;;;;;;;;;;;;5065666;28;20015;-75
2023/11/08 16:00:01;;;;;;;;;;;;;;;;;;5060758;28;19987;-74
2023/11/08 16:02:28;;;;;;;;;;;;;;;;;;5068180;28;19978;-74
2023/11/08 16:04:56;;;;;;;;;;;;;;;;;;5063543;28;19925;-75
2023/11/08 16:07:24;;;;;;;;;;;;;;;;;;5067083;28;19959;-75
2023/11/08 16:09:51;;;;;;;;;;;;;;;;;;5067215;28;19975;-75
2023/11/08 16:12:18;;;;;;;;;;;;;;;;;;5064367;28;20027;-73
2023/11/08 16:14:45;;;;;;;;;;;;;;;;;;5066178;28;20011;-73
2023/11/08 16:17:13;;;;;;;;;;;;;;;;;;5059408;28;19932;-74
2023/11/08 16:19:42;;;;;;;;;;;;;;;;;;5065698;28;20279;-75
2023/11/08 16:22:09;;;;;;;;;;;;;;;;;;5068538;28;19928;-72
2023/11/08 16:24:36;;;;;;;;;;;;;;;;;;5067224;28;19931;-74
2023/11/08 16:27:04;;;;;;;;;;;;;;;;;;5070630;28;19925;-75
2023/11/08 16:29:31;;;;;;;;;;;;;;;;;;5068126;28;20398;-73
2023/11/08 16:31:58;;;;;;;;;;;;;;;;;;5063387;28;20395;-74
2023/11/08 16:34:25;;;;;;;;;;;;;;;;;;5067342;28;20663;-74
2023/11/08 16:36:52;;;;;;;;;;;;;;;;;;5067100;28;19978;-73
2023/11/08 16:39:21;;;;;;;;;;;;;;;;;;5066461;28;19929;-74
2023/11/08 16:41:48;;;;;;;;;;;;;;;;;;5059019;28;19932;-75
2023/11/08 16:44:15;;;;;;;;;;;;;;;;;;5066623;28;19936;-75
2023/11/08 16:46:42;;;;;;;;;;;;;;;;;;5065649;28;20011;-75